createdAt,value
2023-03-25T00:00:39.926Z,3.10
2023-03-25T00:05:04.000Z,3.40
2023-03-25T00:09:12.441Z,2.90
2023-03-25T00:13:21.656Z,2.90
2023-03-25T00:17:31.605Z,4.00
2023-03-25T00:21:40.097Z,3.40
2023-03-25T00:25:48.267Z,3.00
2023-03-25T00:29:56.293Z,3.20
2023-03-25T00:34:04.332Z,3.00
2023-03-25T00:38:12.044Z,2.80
2023-03-25T00:42:26.655Z,3.10
2023-03-25T00:46:36.879Z,3.30
2023-03-25T00:50:44.574Z,2.90
2023-03-25T00:54:54.188Z,2.80
2023-03-25T00:59:02.215Z,2.50
2023-03-25T01:03:10.359Z,2.70
2023-03-25T01:07:17.573Z,2.70
2023-03-25T01:11:27.761Z,2.40
2023-03-25T01:15:35.586Z,2.60
2023-03-25T01:19:43.508Z,3.40
2023-03-25T01:23:51.269Z,3.30
2023-03-25T01:27:59.106Z,3.10
2023-03-25T01:32:08.838Z,3.40
2023-03-25T01:36:16.874Z,3.30
2023-03-25T01:40:26.209Z,3.80
2023-03-25T01:45:14.989Z,3.40
2023-03-25T01:49:27.105Z,3.40
2023-03-25T01:53:36.064Z,3.00
2023-03-25T01:57:46.549Z,2.50
2023-03-25T02:01:54.498Z,3.00
2023-03-25T02:06:06.289Z,3.20
2023-03-25T02:10:15.167Z,3.20
2023-03-25T02:14:24.195Z,3.50
2023-03-25T02:18:40.658Z,4.20
2023-03-25T02:23:07.934Z,4.10
2023-03-25T02:27:27.520Z,5.20
2023-03-25T02:31:48.625Z,5.00
2023-03-25T02:36:30.992Z,4.70
2023-03-25T02:40:42.177Z,4.60
2023-03-25T02:44:56.921Z,5.20
2023-03-25T02:49:08.535Z,4.40
2023-03-25T02:53:19.143Z,4.70
2023-03-25T02:57:31.477Z,4.90
2023-03-25T03:01:41.162Z,5.60
2023-03-25T03:05:53.777Z,5.00
2023-03-25T03:10:06.247Z,4.70
2023-03-25T03:14:29.741Z,4.70
2023-03-25T03:18:48.497Z,4.90
2023-03-25T03:23:02.427Z,4.70
2023-03-25T03:27:14.998Z,5.00
2023-03-25T03:31:48.599Z,5.20
2023-03-25T03:36:02.501Z,5.40
2023-03-25T03:40:16.473Z,5.10
2023-03-25T03:44:27.692Z,4.60
2023-03-25T03:48:38.297Z,4.50
2023-03-25T03:52:48.697Z,4.30
2023-03-25T03:57:02.160Z,4.60
2023-03-25T04:01:12.218Z,5.10
2023-03-25T04:05:22.071Z,5.00
2023-03-25T04:09:38.880Z,4.70
2023-03-25T04:13:47.948Z,4.40
2023-03-25T04:17:56.222Z,4.30
2023-03-25T04:22:04.541Z,5.10
2023-03-25T04:26:13.385Z,5.60
2023-03-25T04:30:22.637Z,4.70
2023-03-25T04:34:31.802Z,5.20
2023-03-25T04:38:41.021Z,5.50
2023-03-25T04:42:51.433Z,6.10
2023-03-25T04:46:59.195Z,6.40
2023-03-25T04:51:10.496Z,5.20
2023-03-25T04:55:19.813Z,4.90
2023-03-25T04:59:28.418Z,4.50
2023-03-25T05:03:40.529Z,5.60
2023-03-25T05:07:49.619Z,5.70
2023-03-25T05:11:57.279Z,5.40
2023-03-25T05:16:05.724Z,4.10
2023-03-25T05:20:15.009Z,4.70
2023-03-25T05:24:22.989Z,4.30
2023-03-25T05:28:31.828Z,4.30
2023-03-25T05:32:41.409Z,4.60
2023-03-25T05:36:49.116Z,4.30
2023-03-25T05:40:56.815Z,3.90
2023-03-25T05:45:05.058Z,4.70
2023-03-25T05:49:13.011Z,4.90
2023-03-25T05:53:20.932Z,4.60
2023-03-25T05:57:28.601Z,4.60
2023-03-25T06:01:37.978Z,5.00
2023-03-25T06:05:45.893Z,4.50
2023-03-25T06:09:54.484Z,5.10
2023-03-25T06:14:03.124Z,4.80
2023-03-25T06:18:11.411Z,5.20
2023-03-25T06:22:20.575Z,4.60
2023-03-25T06:26:38.011Z,4.80
2023-03-25T06:30:46.601Z,5.20
2023-03-25T06:34:54.950Z,5.10
2023-03-25T06:39:05.731Z,5.30
2023-03-25T06:43:16.516Z,5.60
2023-03-25T06:47:26.452Z,4.70
2023-03-25T06:51:34.517Z,4.50
2023-03-25T06:55:48.800Z,4.30
2023-03-25T06:59:57.433Z,4.20
2023-03-25T07:04:05.816Z,4.90
2023-03-25T07:08:14.453Z,4.80
2023-03-25T07:12:23.899Z,3.70
2023-03-25T07:16:31.911Z,3.20
2023-03-25T07:20:39.706Z,3.40
2023-03-25T07:24:54.237Z,3.10
2023-03-25T07:29:06.272Z,2.90
2023-03-25T07:33:14.489Z,2.60
2023-03-25T07:37:21.718Z,2.30
2023-03-25T07:41:29.692Z,2.80
2023-03-25T07:45:43.648Z,3.10
2023-03-25T07:49:53.191Z,2.80
2023-03-25T07:54:04.951Z,2.30
2023-03-25T07:58:14.882Z,2.20
2023-03-25T08:02:22.457Z,2.10
2023-03-25T08:06:30.915Z,1.70
2023-03-25T08:10:39.546Z,2.30
2023-03-25T08:14:47.977Z,2.10
2023-03-25T08:18:58.480Z,1.30
2023-03-25T08:23:10.679Z,1.00
2023-03-25T08:27:18.872Z,1.00
2023-03-25T08:31:26.902Z,1.20
2023-03-25T08:35:35.112Z,1.20
2023-03-25T08:39:45.149Z,0.80
2023-03-25T08:43:52.780Z,1.10
2023-03-25T08:48:01.636Z,1.40
2023-03-25T08:52:10.410Z,1.80
2023-03-25T08:56:17.909Z,1.80
2023-03-25T09:00:27.637Z,1.10
2023-03-25T09:04:35.799Z,1.20
2023-03-25T09:08:43.404Z,1.10
2023-03-25T09:12:57.940Z,1.00
2023-03-25T09:17:07.003Z,1.20
2023-03-25T09:21:14.999Z,0.90
2023-03-25T09:25:22.706Z,0.90
2023-03-25T09:29:30.588Z,1.00
2023-03-25T09:33:38.395Z,1.00
2023-03-25T09:37:46.323Z,0.80
2023-03-25T09:42:08.992Z,0.90
2023-03-25T09:46:18.355Z,0.80
2023-03-25T09:50:26.832Z,0.80
2023-03-25T09:54:35.681Z,0.80
2023-03-25T09:58:46.407Z,1.00
2023-03-25T10:02:58.570Z,1.00
2023-03-25T10:07:14.272Z,0.90
2023-03-25T10:11:27.170Z,1.20
2023-03-25T10:15:38.805Z,0.90
2023-03-25T10:19:54.416Z,1.30
2023-03-25T10:24:13.251Z,1.00
2023-03-25T10:28:24.997Z,1.20
2023-03-25T10:32:36.224Z,1.10
2023-03-25T10:36:47.077Z,1.10
2023-03-25T10:41:00.943Z,1.00
2023-03-25T10:45:17.370Z,0.90
2023-03-25T10:49:27.430Z,0.90
2023-03-25T10:53:37.000Z,1.30
2023-03-25T10:57:45.133Z,1.20
2023-03-25T11:01:54.610Z,1.50
2023-03-25T11:06:02.654Z,1.20
2023-03-25T11:10:19.627Z,1.10
2023-03-25T11:14:29.221Z,1.20
2023-03-25T11:18:41.040Z,1.60
2023-03-25T11:22:52.431Z,1.50
2023-03-25T11:27:00.348Z,1.40
2023-03-25T11:31:15.289Z,1.60
2023-03-25T11:35:26.925Z,1.60
2023-03-25T11:39:38.120Z,1.40
2023-03-25T11:43:48.614Z,1.30
2023-03-25T11:48:01.618Z,1.30
2023-03-25T11:52:14.618Z,1.50
2023-03-25T11:56:24.552Z,2.30
2023-03-25T12:00:39.061Z,1.40
2023-03-25T12:05:00.025Z,1.40
2023-03-25T12:09:13.108Z,1.10
2023-03-25T12:13:27.415Z,0.90
2023-03-25T12:17:46.944Z,1.60
2023-03-25T12:22:10.461Z,3.40
2023-03-25T12:26:20.769Z,4.60
2023-03-25T12:30:39.071Z,2.20
2023-03-25T12:34:57.731Z,1.50
2023-03-25T12:39:17.659Z,1.10
2023-03-25T12:43:31.534Z,1.30
2023-03-25T12:47:41.815Z,1.10
2023-03-25T12:51:58.648Z,1.20
2023-03-25T12:56:24.543Z,1.00
2023-03-25T13:00:44.309Z,1.10
2023-03-25T13:05:01.831Z,1.00
2023-03-25T13:09:14.441Z,1.40
2023-03-25T13:13:26.114Z,0.90
2023-03-25T13:17:39.513Z,1.30
2023-03-25T13:21:52.985Z,1.30
2023-03-25T13:26:02.682Z,1.60
2023-03-25T13:30:18.281Z,2.10
2023-03-25T13:34:30.044Z,2.20
2023-03-25T13:38:43.557Z,2.10
2023-03-25T13:42:55.753Z,2.20
2023-03-25T13:47:06.829Z,1.80
2023-03-25T13:51:14.761Z,2.10
2023-03-25T13:55:25.308Z,1.70
2023-03-25T13:59:53.218Z,1.40
2023-03-25T14:04:26.589Z,1.00
2023-03-25T14:09:17.110Z,1.20
2023-03-25T14:13:28.809Z,1.20
2023-03-25T14:17:38.527Z,1.30
2023-03-25T14:21:48.694Z,1.30
2023-03-25T14:26:01.111Z,1.50
2023-03-25T14:30:17.352Z,1.70
2023-03-25T14:34:29.600Z,1.30
2023-03-25T14:38:56.906Z,1.30
2023-03-25T14:43:06.171Z,1.30
2023-03-25T14:47:33.914Z,1.50
2023-03-25T14:51:50.668Z,1.50
2023-03-25T14:56:02.437Z,1.90
2023-03-25T15:00:17.810Z,2.40
2023-03-25T15:04:33.255Z,1.30
2023-03-25T15:08:42.534Z,1.70
2023-03-25T15:12:54.200Z,3.50
2023-03-25T15:17:11.832Z,3.90
2023-03-25T15:21:20.177Z,2.20
2023-03-25T15:25:28.028Z,1.60
2023-03-25T15:29:56.120Z,1.60
2023-03-25T15:34:24.694Z,3.10
2023-03-25T15:39:01.917Z,1.60
2023-03-25T15:43:44.778Z,1.60
2023-03-25T15:48:24.479Z,2.60
2023-03-25T15:52:54.669Z,2.40
2023-03-25T15:57:07.451Z,2.30
2023-03-25T16:01:21.988Z,1.90
2023-03-25T16:05:30.297Z,2.40
2023-03-25T16:09:44.764Z,2.10
2023-03-25T16:14:05.005Z,2.60
2023-03-25T16:18:15.507Z,3.70
2023-03-25T16:22:26.738Z,2.80
2023-03-25T16:26:46.213Z,4.90
2023-03-25T16:30:55.091Z,6.20
2023-03-25T16:35:04.967Z,9.00
2023-03-25T16:39:16.169Z,8.80
2023-03-25T16:43:26.601Z,6.30
2023-03-25T16:47:35.592Z,6.20
2023-03-25T16:51:43.349Z,6.70
2023-03-25T16:55:52.157Z,8.10
2023-03-25T17:00:01.524Z,9.80
2023-03-25T17:04:16.951Z,8.70
2023-03-25T17:08:26.245Z,7.60
2023-03-25T17:12:34.587Z,9.30
2023-03-25T17:16:42.510Z,9.50
2023-03-25T17:20:51.995Z,12.70
2023-03-25T17:25:16.394Z,16.00
2023-03-25T17:29:24.866Z,13.20
2023-03-25T17:33:39.719Z,12.30
2023-03-25T17:37:50.806Z,15.10
2023-03-25T17:42:01.693Z,18.20
2023-03-25T17:46:10.324Z,18.60
2023-03-25T17:50:20.103Z,18.10
2023-03-25T17:54:27.698Z,17.10
2023-03-25T17:58:35.678Z,16.60
2023-03-25T18:02:43.400Z,15.50
2023-03-25T18:06:51.624Z,9.10
2023-03-25T18:11:00.194Z,6.50
2023-03-25T18:15:09.689Z,6.90
2023-03-25T18:19:22.297Z,5.40
2023-03-25T18:23:30.660Z,6.60
2023-03-25T18:27:43.726Z,4.80
2023-03-25T18:31:52.687Z,3.90
2023-03-25T18:36:00.834Z,4.00
2023-03-25T18:40:21.229Z,3.30
2023-03-25T18:44:30.926Z,2.40
2023-03-25T18:48:39.243Z,2.20
2023-03-25T18:52:46.801Z,2.40
2023-03-25T18:56:54.877Z,2.40
2023-03-25T19:01:04.576Z,2.40
2023-03-25T19:05:13.251Z,2.20
2023-03-25T19:09:22.761Z,2.70
2023-03-25T19:13:31.801Z,2.50
2023-03-25T19:17:40.044Z,1.70
2023-03-25T19:21:50.646Z,2.10
2023-03-25T19:26:01.329Z,3.20
2023-03-25T19:30:12.808Z,4.80
2023-03-25T19:34:22.406Z,5.70
2023-03-25T19:38:33.254Z,4.30
2023-03-25T19:42:42.059Z,5.00
2023-03-25T19:46:50.429Z,5.00
2023-03-25T19:50:58.804Z,4.20
2023-03-25T19:55:07.470Z,5.20
2023-03-25T19:59:17.400Z,4.40
2023-03-25T20:03:26.904Z,4.30
2023-03-25T20:07:35.967Z,4.20
2023-03-25T20:11:44.860Z,3.90
2023-03-25T20:15:53.317Z,3.70
2023-03-25T20:20:01.815Z,3.70
2023-03-25T20:24:11.123Z,3.60
2023-03-25T20:28:19.161Z,3.50
2023-03-25T20:32:39.395Z,4.20
2023-03-25T20:36:50.164Z,7.20
2023-03-25T20:40:58.697Z,4.20
2023-03-25T20:45:07.936Z,3.90
2023-03-25T20:49:17.181Z,3.90
2023-03-25T20:53:26.194Z,6.30
2023-03-25T20:57:34.032Z,6.70
2023-03-25T21:01:41.950Z,4.20
2023-03-25T21:05:50.190Z,4.70
2023-03-25T21:09:59.691Z,4.70
2023-03-25T21:14:08.691Z,4.70
2023-03-25T21:18:16.593Z,4.80
2023-03-25T21:22:25.547Z,4.40
2023-03-25T21:26:35.452Z,3.80
2023-03-25T21:30:44.555Z,3.60
2023-03-25T21:34:52.800Z,4.10
2023-03-25T21:39:02.027Z,4.50
2023-03-25T21:43:10.128Z,4.00
2023-03-25T21:47:18.172Z,4.30
2023-03-25T21:51:26.957Z,4.70
2023-03-25T21:55:35.721Z,4.40
2023-03-25T21:59:43.790Z,4.40
2023-03-25T22:03:55.610Z,4.60
2023-03-25T22:08:03.800Z,4.70
2023-03-25T22:12:11.873Z,4.30
2023-03-25T22:16:21.845Z,4.10
2023-03-25T22:20:30.012Z,4.10
2023-03-25T22:24:37.984Z,4.00
2023-03-25T22:28:47.885Z,3.30
2023-03-25T22:32:55.615Z,3.20
2023-03-25T22:37:04.559Z,2.90
2023-03-25T22:41:13.503Z,3.00
2023-03-25T22:45:21.653Z,2.90
2023-03-25T22:49:30.725Z,3.20
2023-03-25T22:53:38.681Z,3.80
2023-03-25T22:57:47.238Z,3.30
2023-03-25T23:01:55.545Z,2.90
2023-03-25T23:06:05.965Z,2.60
2023-03-25T23:10:16.562Z,2.50
2023-03-25T23:14:24.954Z,2.50
2023-03-25T23:18:33.490Z,2.70
2023-03-25T23:22:41.695Z,2.70
2023-03-25T23:26:50.089Z,2.30
2023-03-25T23:30:58.325Z,2.70
2023-03-25T23:35:07.482Z,2.40
2023-03-25T23:39:20.452Z,2.80
2023-03-25T23:43:28.346Z,2.20
2023-03-25T23:47:37.559Z,2.40
2023-03-25T23:51:45.914Z,2.20
2023-03-25T23:55:56.120Z,2.30
